Latest Weather Observations for Albany Airport

IDW60801

Issued at 7:32 pm WST Tuesday 31 May 2016 (issued every 30 minutes, with the page automatically refreshed every 10 minutes)

About weather observations | Map of weather stations | Latest weather observations for WA | Other Formats
Station Details ID: 009999 Name: ALBANY AIRPORT Lat: -34.94 Lon: 117.82 Height: 68.4 m
Data from the previous 72 hours. | See also: Recent months at Albany Airport
Date/Time
WST
Temp
°C
App
Temp
°C
Dew
Point
Rel
Hum
%
Delta-T
°C
Wind Press
QNH
hPa
Press
MSL
hPa
Rain
since 9 am
mm
Dir
 
Spd
km/h
Gust
km/h
Spd
kts
Gust
kts
31/07:30pm 10.3 8.9 8.9 91 0.7 NE 6 7 3 4 1022.3 - 0.0
31/07:00pm 10.9 10.6 8.7 86 1.1 CALM 0 0 0 0 1022.0 - 0.0
31/06:30pm 11.5 10.1 8.9 84 1.3 ESE 6 7 3 4 1021.7 - 0.0
31/06:00pm 11.4 11.0 9.8 90 0.8 NE 2 7 1 4 1021.4 1021.5 0.0
31/05:30pm 12.4 12.5 10.3 87 1.1 CALM 0 0 0 0 1021.0 - 0.0
31/05:00pm 13.1 13.2 10.2 82 1.5 CALM 0 0 0 0 1020.7 - 0.0
31/04:30pm 14.5 14.8 10.9 79 1.9 CALM 0 0 0 0 1020.7 - 0.0
31/04:00pm 15.1 13.9 9.5 69 2.9 N 6 7 3 4 1020.5 - 0.0
31/03:30pm 15.8 14.2 7.8 59 4.0 NW 6 7 3 4 1020.2 - 0.0
31/03:00pm 16.2 13.8 7.1 55 4.5 WNW 9 11 5 6 1020.2 1020.3 0.0
31/02:30pm 16.9 14.9 7.0 52 4.9 NW 7 11 4 6 1020.1 - 0.0
31/02:00pm 17.3 14.5 6.8 50 5.2 NW 11 15 6 8 1020.1 - 0.0
31/01:30pm 15.8 13.1 7.3 57 4.2 N 11 15 6 8 1020.2 - 0.0
31/01:00pm 16.2 12.9 6.6 53 4.7 N 13 19 7 10 1020.3 - 0.0
31/12:00pm 15.8 13.1 7.3 57 4.2 NW 11 17 6 9 1020.9 1021.0 0.0
31/11:30am 15.4 11.8 6.8 56 4.2 NW 15 20 8 11 1021.3 - 0.0
31/11:00am 14.8 12.6 7.8 63 3.5 NNW 9 19 5 10 1021.5 - 0.0
31/10:30am 13.4 11.6 7.9 69 2.7 NNE 7 11 4 6 1021.7 - 0.0
31/10:00am 12.3 10.7 7.8 74 2.2 N 6 9 3 5 1021.8 - 0.0
31/09:30am 10.8 9.2 7.9 82 1.4 NNE 6 9 3 5 1021.7 - 0.0
31/09:00am 8.6 6.3 7.5 93 0.5 NE 9 11 5 6 1021.7 1021.8 0.0
31/08:30am 7.2 6.5 7.0 99 0.1 CALM 0 0 0 0 1021.7 - 0.0
31/08:00am 6.3 5.5 6.3 100 0.0 CALM 0 0 0 0 1021.5 - 0.0
31/07:30am 5.0 3.5 4.8 99 0.1 NNE 2 6 1 3 1021.4 - 0.0
31/07:00am 4.3 2.3 4.3 100 0.0 NNE 4 7 2 4 1021.1 - 0.0
31/06:30am 4.2 1.7 3.7 97 0.2 NNE 6 7 3 4 1020.9 - 0.0
31/06:18am 3.6 1.1 3.6 100 0.0 NNE 6 7 3 4 1020.9 - 0.0
31/06:04am 3.9 1.2 3.9 100 0.0 NNE 7 7 4 4 1020.7 - 0.0
31/06:00am 3.9 1.2 3.9 100 0.0 NNE 7 7 4 4 1020.7 1020.8 0.0
31/05:30am 3.2 0.4 3.2 100 0.0 NNE 7 9 4 5 1020.6 - 0.0
31/05:00am 3.5 0.8 3.5 100 0.0 NNE 7 9 4 5 1020.3 - 0.0
31/04:55am 3.6 1.1 3.6 100 0.0 N 6 9 3 5 1020.3 - 0.0
31/04:30am 3.4 0.3 3.4 100 0.0 NNE 9 11 5 6 1020.1 - 0.0
31/04:00am 3.4 -0.1 3.4 100 0.0 N 11 13 6 7 1020.0 - 0.0
31/03:33am 3.4 -0.5 3.4 100 0.0 N 13 13 7 7 1020.0 - 0.0
31/03:30am 3.6 0.1 3.6 100 0.0 N 11 13 6 7 1020.0 - 0.0
31/03:00am 4.0 1.0 4.0 100 0.0 N 9 11 5 6 1020.0 1020.1 0.0
31/02:41am 5.9 3.6 5.9 100 0.0 N 7 7 4 4 1020.2 - 0.0
31/02:40am 6.0 3.7 5.8 99 0.1 N 7 7 4 4 1020.2 - 0.0
31/02:30am 5.0 2.7 4.8 99 0.1 N 6 7 3 4 1020.2 - 0.0
31/02:04am 5.2 2.8 5.2 100 0.0 N 7 7 4 4 1020.3 - 0.0
31/02:00am 5.6 3.3 5.6 100 0.0 N 7 7 4 4 1020.3 - 0.0
31/01:30am 5.8 3.4 5.3 97 0.2 NNE 7 7 4 4 1020.2 - 0.0
31/01:00am 6.3 4.1 6.1 99 0.1 NNE 7 7 4 4 1020.0 - 0.0
31/12:30am 6.7 4.0 5.8 94 0.4 NNE 9 9 5 5 1020.1 - 0.0
31/12:00am 7.6 5.0 6.1 90 0.7 NE 9 11 5 6 1020.4 1020.5 0.0
 
Date/Time
WST
Temp
°C
App
Temp
°C
Dew
Point
Rel
Hum
%
Delta-T
°C
Wind Press
QNH
hPa
Press
MSL
hPa
Rain
since 9 am
mm
Dir
 
Spd
km/h
Gust
km/h
Spd
kts
Gust
kts
30/11:30pm 7.1 4.5 6.2 94 0.4 NNE 9 11 5 6 1020.3 - 0.0
30/11:00pm 6.7 4.0 5.8 94 0.4 NNE 9 11 5 6 1020.1 - 0.0
30/10:30pm 7.2 4.7 6.5 95 0.3 NNE 9 9 5 5 1020.4 - 0.0
30/10:00pm 8.3 6.4 7.4 94 0.4 NNE 7 7 4 4 1020.6 - 0.0
30/09:30pm 8.9 6.5 7.2 89 0.8 NE 9 11 5 6 1020.7 - 0.0
30/09:00pm 9.5 7.9 8.7 95 0.4 NNE 7 7 4 4 1020.8 1020.9 0.0
30/08:30pm 9.1 6.9 7.8 92 0.6 NE 9 9 5 5 1020.7 - 0.0
30/08:00pm 9.3 7.0 7.6 89 0.8 ENE 9 13 5 7 1020.5 - 0.0
30/07:30pm 11.0 9.6 8.8 86 1.1 NE 6 7 3 4 1020.6 - 0.0
30/07:00pm 12.7 12.5 8.9 78 1.9 CALM 0 2 0 1 1020.7 - 0.0
30/06:30pm 13.0 11.4 8.6 74 2.2 NE 7 7 4 4 1020.6 - 0.0
30/06:00pm 12.9 11.6 9.1 78 1.9 ESE 6 7 3 4 1020.3 1020.4 0.0
30/05:30pm 13.3 12.9 9.8 79 1.8 NE 2 9 1 5 1019.8 - 0.0
30/05:00pm 14.2 14.1 9.5 73 2.4 CALM 0 0 0 0 1019.8 - 0.0
30/04:30pm 14.2 14.0 9.1 71 2.6 CALM 0 0 0 0 1019.6 - 0.0
30/04:00pm 14.8 14.2 7.5 61 3.6 CALM 0 0 0 0 1019.4 - 0.0
30/03:30pm 15.0 12.5 6.6 57 4.1 NE 9 15 5 8 1019.2 - 0.0
30/03:00pm 15.5 13.0 6.7 55 4.3 NNE 9 17 5 9 1018.9 1019.0 0.0
30/02:30pm 14.9 11.7 6.7 58 4.0 NNE 13 17 7 9 1018.8 - 0.0
30/02:00pm 15.6 13.1 6.6 55 4.4 NE 9 13 5 7 1018.8 - 0.0
30/01:30pm 15.5 12.4 7.2 57 4.1 NE 13 19 7 10 1019.0 - 0.0
30/01:00pm 14.9 12.1 6.9 58 3.9 NE 11 15 6 8 1019.5 - 0.0
30/12:30pm 14.3 11.0 6.4 59 3.8 ENE 13 17 7 9 1019.7 - 0.0
30/12:00pm 14.4 11.1 6.5 59 3.8 NNE 13 20 7 11 1019.9 1020.0 0.0
30/11:30am 14.9 11.6 6.2 56 4.2 NE 13 24 7 13 1020.1 - 0.0
30/11:00am 14.6 12.0 6.0 56 4.1 NE 9 15 5 8 1020.7 - 0.0
30/10:30am 14.1 11.7 5.1 54 4.2 ENE 7 11 4 6 1020.6 - 0.0
30/10:00am 13.5 11.0 6.6 63 3.3 N 9 11 5 6 1020.9 - 0.0
30/09:30am 11.8 9.8 7.2 73 2.2 N 7 11 4 6 1021.1 - 0.0
30/09:00am 9.6 7.8 7.1 84 1.2 N 6 9 3 5 1021.1 1021.2 0.2
30/08:30am 7.0 6.1 6.1 94 0.4 CALM 0 0 0 0 1021.3 - 0.2
30/08:00am 5.9 4.4 5.2 95 0.3 NW 2 6 1 3 1021.2 - 0.2
30/07:30am 4.6 3.4 4.4 99 0.1 CALM 0 0 0 0 1021.0 - 0.2
30/07:00am 4.4 3.2 4.4 100 0.0 CALM 0 0 0 0 1020.9 - 0.2
30/06:30am 4.6 2.2 4.4 99 0.1 N 6 6 3 3 1020.6 - 0.2
30/06:00am 4.3 1.7 4.1 99 0.1 N 7 9 4 5 1020.3 1020.4 0.2
30/05:30am 5.5 3.2 5.0 97 0.2 N 6 7 3 4 1020.0 - 0.2
30/05:00am 5.9 3.5 5.2 95 0.3 N 7 9 4 5 1019.9 - 0.2
30/04:30am 6.8 4.2 5.9 94 0.4 NNW 9 9 5 5 1020.0 - 0.2
30/04:00am 8.8 6.5 5.5 80 1.5 NNW 7 9 4 5 1020.0 - 0.2
30/03:30am 9.3 6.6 5.6 78 1.7 N 9 11 5 6 1020.2 - 0.2
30/03:00am 9.4 7.0 6.8 84 1.2 N 9 11 5 6 1020.3 1020.4 0.2
30/02:30am 11.1 8.2 4.9 65 2.8 N 9 13 5 7 1020.3 - 0.2
30/02:00am 10.1 7.8 7.6 84 1.2 NNW 9 11 5 6 1020.3 - 0.2
30/01:30am 11.5 9.2 4.7 63 3.1 W 6 9 3 5 1020.3 - 0.2
30/01:00am 10.2 8.0 7.9 86 1.1 NW 9 11 5 6 1020.5 - 0.2
30/12:30am 10.5 8.6 7.6 82 1.4 WNW 7 11 4 6 1020.5 - 0.2
30/12:00am 10.4 8.2 7.7 83 1.3 WNW 9 9 5 5 1020.7 1020.8 0.2
 
Date/Time
WST
Temp
°C
App
Temp
°C
Dew
Point
Rel
Hum
%
Delta-T
°C
Wind Press
QNH
hPa
Press
MSL
hPa
Rain
since 9 am
mm
Dir
 
Spd
km/h
Gust
km/h
Spd
kts
Gust
kts
29/11:30pm 10.2 8.3 7.7 84 1.2 NW 7 9 4 5 1020.7 - 0.2
29/11:00pm 10.1 8.4 8.5 90 0.8 WNW 7 9 4 5 1020.9 - 0.2
29/10:30pm 10.1 8.3 8.0 87 1.0 NNW 7 9 4 5 1020.9 - 0.2
29/10:00pm 10.1 8.3 7.8 86 1.1 N 7 9 4 5 1021.0 - 0.2
29/09:30pm 10.0 9.2 8.1 88 0.9 NNE 2 6 1 3 1021.0 - 0.2
29/09:00pm 10.0 8.4 8.6 91 0.7 NE 7 7 4 4 1021.0 1021.1 0.2
29/08:30pm 10.7 10.3 8.2 84 1.2 CALM 0 0 0 0 1020.9 - 0.2
29/08:00pm 10.9 10.4 7.8 81 1.5 CALM 0 0 0 0 1020.8 - 0.2
29/07:30pm 11.4 10.0 7.2 75 2.0 S 4 7 2 4 1020.6 - 0.2
29/07:00pm 11.3 10.0 7.8 79 1.7 SW 4 7 2 4 1020.5 - 0.2
29/06:30pm 11.6 9.7 6.8 72 2.3 S 6 7 3 4 1020.2 - 0.2
29/06:00pm 11.7 9.7 7.1 73 2.2 SSW 7 9 4 5 1019.9 1020.0 0.2
29/05:30pm 12.0 10.0 7.2 72 2.3 SW 7 7 4 4 1019.6 - 0.0
29/05:00pm 12.2 10.5 7.7 74 2.2 SSW 6 7 3 4 1019.3 - 0.0
29/04:30pm 12.4 10.3 6.8 68 2.7 S 7 9 4 5 1019.2 - 0.0
29/04:00pm 12.8 10.1 5.5 61 3.4 S 9 13 5 7 1019.0 - 0.0
29/03:30pm 12.9 9.9 5.9 62 3.3 S 11 19 6 10 1018.9 - 0.0
29/03:00pm 13.3 10.8 6.6 64 3.2 SW 9 13 5 7 1018.6 1018.7 0.0
29/02:30pm 13.3 9.1 7.4 67 2.9 SW 19 28 10 15 1018.5 - 0.0
29/02:00pm 14.3 10.5 5.9 57 4.0 SSW 15 22 8 12 1018.3 - 0.0
29/01:30pm 13.0 10.8 7.9 71 2.5 SSW 9 13 5 7 1018.5 - 0.0
29/01:00pm 12.8 8.5 7.9 72 2.4 S 20 24 11 13 1018.7 - 0.0
29/12:30pm 13.3 9.4 6.9 65 3.1 SSW 17 22 9 12 1018.7 - 0.0
29/12:00pm 13.4 9.1 6.8 64 3.2 S 19 22 10 12 1018.8 1018.9 0.0
29/11:30am 13.3 9.4 6.9 65 3.1 SSW 17 24 9 13 1019.2 - 0.0
29/11:00am 12.8 9.3 7.0 68 2.8 SSW 15 20 8 11 1019.5 - 0.0
29/10:30am 12.9 10.3 7.6 70 2.6 SSW 11 17 6 9 1019.5 - 0.0
29/10:00am 12.8 10.1 7.2 69 2.7 S 11 19 6 10 1019.3 - 0.0
29/09:30am 12.2 10.1 8.1 76 2.0 SW 9 11 5 6 1019.2 - 0.0
29/09:00am 11.5 9.8 8.5 82 1.5 WSW 7 9 4 5 1019.2 1019.3 5.2
29/08:30am 11.1 9.5 8.9 86 1.1 W 7 9 4 5 1018.8 - 5.2
29/08:00am 10.9 8.4 8.2 83 1.3 W 11 15 6 8 1018.4 - 5.2
29/07:30am 10.7 7.9 7.1 78 1.7 SSW 11 15 6 8 1018.0 - 5.2
29/07:00am 10.3 8.7 8.7 90 0.8 WNW 7 11 4 6 1017.7 - 5.2
29/06:30am 10.4 8.5 9.0 91 0.7 W 9 11 5 6 1017.4 - 5.2
29/06:00am 10.8 8.3 8.1 83 1.3 S 11 17 6 9 1016.9 1017.0 5.2
29/05:30am 10.3 8.9 9.5 95 0.4 W 7 9 4 5 1016.8 - 5.2
29/05:00am 10.5 9.1 9.7 95 0.4 WSW 7 11 4 6 1016.4 - 5.2
29/04:30am 10.5 8.7 9.5 93 0.5 SSW 9 13 5 7 1016.2 - 5.2
29/04:19am 10.6 8.0 9.4 92 0.6 SW 13 19 7 10 1016.3 - 5.2
29/04:05am 10.7 8.1 9.3 91 0.7 SW 13 20 7 11 1016.1 - 5.2
29/04:00am 10.7 8.9 9.5 92 0.6 WSW 9 13 5 7 1016.1 - 5.2
29/03:30am 10.4 8.6 9.6 95 0.4 SW 9 11 5 6 1015.7 - 5.2
29/03:05am 10.8 8.3 9.8 93 0.5 SSW 13 20 7 11 1015.6 - 5.2
29/03:00am 10.9 8.1 9.9 93 0.5 SSW 15 26 8 14 1015.5 1015.6 5.2
29/02:46am 10.8 9.1 9.8 93 0.5 SW 9 17 5 9 1015.6 - 5.0
29/02:30am 11.1 9.6 10.5 96 0.3 W 9 11 5 6 1015.5 - 4.6
29/02:17am 11.1 9.9 10.3 95 0.4 SW 7 11 4 6 1015.4 - 4.6
29/02:00am 11.1 9.6 10.5 96 0.3 WSW 9 20 5 11 1015.5 - 4.6
29/01:49am 11.0 8.7 10.6 97 0.2 W 13 17 7 9 1015.4 - 4.0
29/01:43am 11.0 9.5 10.4 96 0.3 W 9 15 5 8 1015.3 - 3.6
29/01:30am 10.9 8.6 10.5 97 0.2 W 13 15 7 8 1015.2 - 3.4
29/01:19am 10.9 9.4 10.5 97 0.2 W 9 15 5 8 1015.2 - 3.4
29/01:14am 10.8 9.6 10.4 97 0.2 WSW 7 13 4 7 1015.1 - 3.0
29/01:00am 10.8 8.9 10.4 97 0.2 W 11 17 6 9 1015.2 - 3.0
29/12:56am 10.8 8.5 10.4 97 0.2 W 13 17 7 9 1015.2 - 3.0
29/12:55am 10.7 8.4 10.3 97 0.2 W 13 17 7 9 1015.2 - 3.0
29/12:31am 10.6 8.2 10.0 96 0.3 W 13 15 7 8 1015.3 - 2.4
29/12:30am 10.6 8.2 10.0 96 0.3 W 13 15 7 8 1015.3 - 2.4
29/12:00am 10.4 8.4 10.0 97 0.2 WNW 11 15 6 8 1015.2 1015.3 2.2
 
Date/Time
WST
Temp
°C
App
Temp
°C
Dew
Point
Rel
Hum
%
Delta-T
°C
Wind Press
QNH
hPa
Press
MSL
hPa
Rain
since 9 am
mm
Dir
 
Spd
km/h
Gust
km/h
Spd
kts
Gust
kts
28/11:54pm 10.4 8.4 10.0 97 0.2 WNW 11 15 6 8 1015.2 - 2.2
28/11:39pm 10.4 8.4 10.0 97 0.2 W 11 17 6 9 1015.0 - 2.2
28/11:30pm 10.1 7.5 9.5 96 0.3 WNW 13 17 7 9 1015.0 - 2.0
28/11:00pm 9.7 6.7 9.3 97 0.2 WNW 15 17 8 9 1014.8 - 1.8
28/10:36pm 10.2 8.1 9.8 97 0.2 W 11 15 6 8 1014.7 - 1.8
28/10:30pm 10.4 8.4 10.0 97 0.2 W 11 13 6 7 1014.7 - 1.8
28/10:26pm 10.4 8.0 10.0 97 0.2 W 13 17 7 9 1014.8 - 1.8
28/10:00pm 9.5 6.8 9.1 97 0.2 WNW 13 17 7 9 1014.7 - 1.6
28/09:30pm 9.6 7.0 9.2 97 0.2 WNW 13 15 7 8 1014.6 - 1.6
28/09:00pm 10.3 7.4 9.7 96 0.3 WNW 15 17 8 9 1014.5 1014.6 1.6
28/08:30pm 10.5 8.1 9.9 96 0.3 WNW 13 17 7 9 1014.4 - 1.6
28/08:00pm 11.5 8.4 10.3 92 0.6 W 17 24 9 13 1014.1 - 1.6

Other Formats:

Comma delimited format used in spreadsheet applications
http://www.bom.gov.au/fwo/IDW60801/IDW60801.94802.axf

JavaScript Object Notation format (JSON) in row-major order
http://www.bom.gov.au/fwo/IDW60801/IDW60801.94802.json